Back to top

Cody, WY weather

Yellowstone Regional Airport (AWOS), Cody, WY: 7/22/2019 13:56
Visibility10 statute milesclear sky
View 7-Day Forecast
Area Summary
Sky/CloudsSky Clear
Weather [last 24 hours]None
Pressure30.25 in.Hg (1025 hPa)
Dew Point53.1 °F (11.7 °C)
Relative Humidity33.6 %
Reading TimePrecipitation
6-hr ending 7/22@11:56Indeterminate
6-hr ending 7/22@05:56Indeterminate
6-hr ending 7/21@23:56Indeterminate
6-hr ending 7/21@17:56Indeterminate
24-hr ending 7/22@05:56Indeterminate
Temperature84.9 °F (29.4 °C)red thermometer
Reading TimeMinimum to Maximum Temperature
6-hr ending 7/22@11:5657 °F to 78.1 °F (13.9 °C to 25.6 °C)
6-hr ending 7/22@05:5653.1 °F to 63 °F (11.7 °C to 17.2 °C)
6-hr ending 7/21@23:5662.1 °F to 75 °F (16.7 °C to 23.9 °C)
6-hr ending 7/21@17:5669.1 °F to 75.9 °F (20.6 °C to 24.4 °C)
24-hr ending 7/22@00:5653.1 °F to 75.9 °F (11.7 °C to 24.4 °C)
Wind6.9 MPH (6 KT) green arrow with no specific direction
Wind FromVariable (VRB Degrees)
Twilight Begins05:16Sunshine Yesterday
Sunrise05:51N/A
Sunset20:53
Twilight Ends21:28
RemarksLTG, DSNT, W, PNO
METARKCOD 221956Z AUTO VRB06KT 10SM CLR 29/12 A3025 RMK AO2 LTG DSNT W SLP199 T02940117 PNO
Tags: